sensor_id;sensor_type;location;lat;lon;timestamp;P1;durP1;ratioP1;P2;durP2;ratioP2
67986;SDS011;54767;53.800;15.956;2023-04-16T00:00:55;38.20;;;32.60;;
67986;SDS011;54767;53.800;15.956;2023-04-16T00:03:31;27.00;;;22.40;;
67986;SDS011;54767;53.800;15.956;2023-04-16T00:06:00;27.00;;;20.60;;
67986;SDS011;54767;53.800;15.956;2023-04-16T00:08:28;37.90;;;32.60;;
67986;SDS011;54767;53.800;15.956;2023-04-16T00:10:57;36.50;;;29.10;;
67986;SDS011;54767;53.800;15.956;2023-04-16T00:13:25;44.60;;;36.80;;
67986;SDS011;54767;53.800;15.956;2023-04-16T00:15:54;41.10;;;34.00;;
67986;SDS011;54767;53.800;15.956;2023-04-16T00:18:22;35.70;;;30.10;;
67986;SDS011;54767;53.800;15.956;2023-04-16T00:20:51;38.00;;;31.50;;
67986;SDS011;54767;53.800;15.956;2023-04-16T00:23:20;22.40;;;16.90;;
67986;SDS011;54767;53.800;15.956;2023-04-16T00:25:48;39.60;;;34.50;;
67986;SDS011;54767;53.800;15.956;2023-04-16T00:28:17;30.60;;;27.30;;
67986;SDS011;54767;53.800;15.956;2023-04-16T00:30:45;32.20;;;28.40;;
67986;SDS011;54767;53.800;15.956;2023-04-16T00:33:13;20.70;;;17.60;;
67986;SDS011;54767;53.800;15.956;2023-04-16T00:35:46;13.30;;;10.40;;
67986;SDS011;54767;53.800;15.956;2023-04-16T00:38:14;20.90;;;18.80;;
67986;SDS011;54767;53.800;15.956;2023-04-16T00:40:43;15.70;;;12.40;;
67986;SDS011;54767;53.800;15.956;2023-04-16T00:43:18;20.90;;;18.70;;
67986;SDS011;54767;53.800;15.956;2023-04-16T00:45:49;16.10;;;14.30;;
67986;SDS011;54767;53.800;15.956;2023-04-16T00:48:18;18.00;;;15.00;;
67986;SDS011;54767;53.800;15.956;2023-04-16T00:50:47;24.40;;;21.90;;
67986;SDS011;54767;53.800;15.956;2023-04-16T00:53:16;25.30;;;22.70;;
67986;SDS011;54767;53.800;15.956;2023-04-16T00:55:44;20.70;;;17.30;;
67986;SDS011;54767;53.800;15.956;2023-04-16T00:58:12;18.20;;;15.60;;
67986;SDS011;54767;53.800;15.956;2023-04-16T01:00:42;13.30;;;10.50;;
67986;SDS011;54767;53.800;15.956;2023-04-16T01:03:10;8.20;;;5.70;;
67986;SDS011;54767;53.800;15.956;2023-04-16T01:05:38;11.20;;;8.30;;
67986;SDS011;54767;53.800;15.956;2023-04-16T01:08:17;4.80;;;4.10;;
67986;SDS011;54767;53.800;15.956;2023-04-16T01:10:47;5.00;;;3.80;;
67986;SDS011;54767;53.800;15.956;2023-04-16T01:13:15;5.10;;;3.80;;
67986;SDS011;54767;53.800;15.956;2023-04-16T01:15:43;5.60;;;3.70;;
67986;SDS011;54767;53.800;15.956;2023-04-16T01:18:15;6.10;;;3.80;;
67986;SDS011;54767;53.800;15.956;2023-04-16T01:20:45;4.30;;;3.90;;
67986;SDS011;54767;53.800;15.956;2023-04-16T01:23:14;6.50;;;4.10;;
67986;SDS011;54767;53.800;15.956;2023-04-16T01:25:43;4.20;;;3.90;;
67986;SDS011;54767;53.800;15.956;2023-04-16T01:28:12;5.20;;;3.70;;
67986;SDS011;54767;53.800;15.956;2023-04-16T01:30:41;14.00;;;10.10;;
67986;SDS011;54767;53.800;15.956;2023-04-16T01:33:09;11.30;;;8.00;;
67986;SDS011;54767;53.800;15.956;2023-04-16T01:38:08;16.30;;;12.50;;
67986;SDS011;54767;53.800;15.956;2023-04-16T01:40:37;18.70;;;14.80;;
67986;SDS011;54767;53.800;15.956;2023-04-16T01:43:05;18.00;;;13.50;;
67986;SDS011;54767;53.800;15.956;2023-04-16T01:45:33;16.80;;;13.80;;
67986;SDS011;54767;53.800;15.956;2023-04-16T01:48:02;16.50;;;13.00;;
67986;SDS011;54767;53.800;15.956;2023-04-16T01:50:31;21.50;;;12.40;;
67986;SDS011;54767;53.800;15.956;2023-04-16T01:53:00;24.50;;;8.70;;
67986;SDS011;54767;53.800;15.956;2023-04-16T01:55:32;28.50;;;15.50;;
67986;SDS011;54767;53.800;15.956;2023-04-16T01:58:01;18.60;;;13.00;;
67986;SDS011;54767;53.800;15.956;2023-04-16T02:00:29;16.30;;;12.10;;
67986;SDS011;54767;53.800;15.956;2023-04-16T02:02:58;13.20;;;11.10;;
67986;SDS011;54767;53.800;15.956;2023-04-16T02:05:27;12.70;;;9.60;;
67986;SDS011;54767;53.800;15.956;2023-04-16T02:07:55;9.00;;;7.90;;
67986;SDS011;54767;53.800;15.956;2023-04-16T02:10:23;13.50;;;9.90;;
67986;SDS011;54767;53.800;15.956;2023-04-16T02:12:51;16.80;;;11.50;;
67986;SDS011;54767;53.800;15.956;2023-04-16T02:15:20;13.80;;;10.40;;
67986;SDS011;54767;53.800;15.956;2023-04-16T02:17:48;5.40;;;4.20;;
67986;SDS011;54767;53.800;15.956;2023-04-16T02:20:20;4.30;;;3.90;;
67986;SDS011;54767;53.800;15.956;2023-04-16T02:22:49;9.40;;;4.30;;
67986;SDS011;54767;53.800;15.956;2023-04-16T02:25:17;13.80;;;6.30;;
67986;SDS011;54767;53.800;15.956;2023-04-16T02:27:45;11.40;;;5.00;;
67986;SDS011;54767;53.800;15.956;2023-04-16T02:30:13;7.70;;;4.40;;
67986;SDS011;54767;53.800;15.956;2023-04-16T02:32:42;6.00;;;4.60;;
67986;SDS011;54767;53.800;15.956;2023-04-16T02:35:10;4.80;;;3.70;;
67986;SDS011;54767;53.800;15.956;2023-04-16T02:37:38;6.20;;;3.90;;
67986;SDS011;54767;53.800;15.956;2023-04-16T02:40:07;21.40;;;6.90;;
67986;SDS011;54767;53.800;15.956;2023-04-16T02:42:36;10.10;;;5.10;;
67986;SDS011;54767;53.800;15.956;2023-04-16T02:45:05;38.90;;;14.50;;
67986;SDS011;54767;53.800;15.956;2023-04-16T02:47:33;54.60;;;18.00;;
67986;SDS011;54767;53.800;15.956;2023-04-16T02:50:02;21.20;;;9.80;;
67986;SDS011;54767;53.800;15.956;2023-04-16T02:52:30;15.60;;;10.40;;
67986;SDS011;54767;53.800;15.956;2023-04-16T02:54:59;7.30;;;5.90;;
67986;SDS011;54767;53.800;15.956;2023-04-16T02:57:28;7.90;;;5.00;;
67986;SDS011;54767;53.800;15.956;2023-04-16T02:59:57;5.00;;;4.30;;
67986;SDS011;54767;53.800;15.956;2023-04-16T03:02:25;5.20;;;4.40;;
67986;SDS011;54767;53.800;15.956;2023-04-16T03:04:54;11.90;;;8.20;;
67986;SDS011;54767;53.800;15.956;2023-04-16T03:07:22;9.70;;;7.20;;
67986;SDS011;54767;53.800;15.956;2023-04-16T03:09:51;8.70;;;6.10;;
67986;SDS011;54767;53.800;15.956;2023-04-16T03:12:19;9.00;;;7.00;;
67986;SDS011;54767;53.800;15.956;2023-04-16T03:14:49;6.00;;;5.40;;
67986;SDS011;54767;53.800;15.956;2023-04-16T03:17:18;7.70;;;6.40;;
67986;SDS011;54767;53.800;15.956;2023-04-16T03:19:47;7.70;;;5.90;;
67986;SDS011;54767;53.800;15.956;2023-04-16T03:22:17;7.50;;;5.60;;
67986;SDS011;54767;53.800;15.956;2023-04-16T03:24:45;13.00;;;7.10;;
67986;SDS011;54767;53.800;15.956;2023-04-16T03:27:14;22.50;;;9.90;;
67986;SDS011;54767;53.800;15.956;2023-04-16T03:29:42;21.80;;;9.30;;
67986;SDS011;54767;53.800;15.956;2023-04-16T03:32:10;18.60;;;9.20;;
67986;SDS011;54767;53.800;15.956;2023-04-16T03:34:39;12.70;;;6.60;;
67986;SDS011;54767;53.800;15.956;2023-04-16T03:37:08;13.00;;;7.50;;
67986;SDS011;54767;53.800;15.956;2023-04-16T03:39:38;18.90;;;9.60;;
67986;SDS011;54767;53.800;15.956;2023-04-16T03:42:07;19.60;;;10.80;;
67986;SDS011;54767;53.800;15.956;2023-04-16T03:44:35;15.10;;;8.60;;
67986;SDS011;54767;53.800;15.956;2023-04-16T03:47:04;12.00;;;7.00;;
67986;SDS011;54767;53.800;15.956;2023-04-16T03:49:32;10.90;;;6.60;;
67986;SDS011;54767;53.800;15.956;2023-04-16T03:52:00;10.50;;;6.90;;
67986;SDS011;54767;53.800;15.956;2023-04-16T03:54:28;8.40;;;6.00;;
67986;SDS011;54767;53.800;15.956;2023-04-16T03:56:57;8.50;;;5.90;;
67986;SDS011;54767;53.800;15.956;2023-04-16T03:59:25;5.50;;;4.50;;
67986;SDS011;54767;53.800;15.956;2023-04-16T04:01:53;7.60;;;4.90;;
67986;SDS011;54767;53.800;15.956;2023-04-16T04:04:22;7.00;;;4.80;;
67986;SDS011;54767;53.800;15.956;2023-04-16T04:06:50;6.70;;;4.70;;
67986;SDS011;54767;53.800;15.956;2023-04-16T04:09:18;6.90;;;4.90;;
67986;SDS011;54767;53.800;15.956;2023-04-16T04:11:47;6.70;;;4.30;;
67986;SDS011;54767;53.800;15.956;2023-04-16T04:14:16;7.60;;;5.40;;
67986;SDS011;54767;53.800;15.956;2023-04-16T04:16:44;7.00;;;5.10;;
67986;SDS011;54767;53.800;15.956;2023-04-16T04:19:12;8.50;;;4.80;;
67986;SDS011;54767;53.800;15.956;2023-04-16T04:21:41;6.60;;;5.00;;
67986;SDS011;54767;53.800;15.956;2023-04-16T04:24:09;8.90;;;5.60;;
67986;SDS011;54767;53.800;15.956;2023-04-16T04:26:37;5.60;;;4.50;;
67986;SDS011;54767;53.800;15.956;2023-04-16T04:29:05;8.40;;;4.80;;
67986;SDS011;54767;53.800;15.956;2023-04-16T04:31:34;4.80;;;4.20;;
67986;SDS011;54767;53.800;15.956;2023-04-16T04:34:02;5.90;;;4.20;;
67986;SDS011;54767;53.800;15.956;2023-04-16T04:36:31;5.40;;;4.10;;
67986;SDS011;54767;53.800;15.956;2023-04-16T04:38:59;6.70;;;4.70;;
67986;SDS011;54767;53.800;15.956;2023-04-16T04:41:27;6.40;;;4.50;;
67986;SDS011;54767;53.800;15.956;2023-04-16T04:43:56;9.30;;;5.00;;
67986;SDS011;54767;53.800;15.956;2023-04-16T04:46:24;8.70;;;5.00;;
67986;SDS011;54767;53.800;15.956;2023-04-16T04:48:52;6.10;;;4.40;;
67986;SDS011;54767;53.800;15.956;2023-04-16T04:51:20;8.90;;;5.30;;
67986;SDS011;54767;53.800;15.956;2023-04-16T04:53:49;7.40;;;4.40;;
67986;SDS011;54767;53.800;15.956;2023-04-16T04:56:17;8.60;;;5.20;;
67986;SDS011;54767;53.800;15.956;2023-04-16T04:58:45;6.90;;;4.10;;
67986;SDS011;54767;53.800;15.956;2023-04-16T05:01:14;6.90;;;4.70;;
67986;SDS011;54767;53.800;15.956;2023-04-16T05:03:42;8.70;;;5.90;;
67986;SDS011;54767;53.800;15.956;2023-04-16T05:06:11;7.80;;;5.10;;
67986;SDS011;54767;53.800;15.956;2023-04-16T05:08:40;7.50;;;5.60;;
67986;SDS011;54767;53.800;15.956;2023-04-16T05:11:08;7.30;;;5.10;;
67986;SDS011;54767;53.800;15.956;2023-04-16T05:13:36;9.80;;;5.20;;
67986;SDS011;54767;53.800;15.956;2023-04-16T05:16:05;8.80;;;5.00;;
67986;SDS011;54767;53.800;15.956;2023-04-16T05:18:33;9.60;;;5.60;;
67986;SDS011;54767;53.800;15.956;2023-04-16T05:21:01;7.90;;;5.00;;
67986;SDS011;54767;53.800;15.956;2023-04-16T05:23:30;13.20;;;9.60;;
67986;SDS011;54767;53.800;15.956;2023-04-16T05:25:58;9.60;;;6.60;;
67986;SDS011;54767;53.800;15.956;2023-04-16T05:28:27;10.50;;;8.50;;
67986;SDS011;54767;53.800;15.956;2023-04-16T05:30:55;9.90;;;5.50;;
67986;SDS011;54767;53.800;15.956;2023-04-16T05:33:23;5.60;;;4.60;;
67986;SDS011;54767;53.800;15.956;2023-04-16T05:35:52;12.00;;;8.50;;
67986;SDS011;54767;53.800;15.956;2023-04-16T05:38:20;11.70;;;9.50;;
67986;SDS011;54767;53.800;15.956;2023-04-16T05:40:48;7.40;;;5.30;;
67986;SDS011;54767;53.800;15.956;2023-04-16T05:43:17;7.40;;;4.70;;
67986;SDS011;54767;53.800;15.956;2023-04-16T05:45:45;5.90;;;4.80;;
67986;SDS011;54767;53.800;15.956;2023-04-16T05:48:13;7.00;;;5.20;;
67986;SDS011;54767;53.800;15.956;2023-04-16T05:50:42;7.90;;;4.50;;
67986;SDS011;54767;53.800;15.956;2023-04-16T05:53:10;7.20;;;5.20;;
67986;SDS011;54767;53.800;15.956;2023-04-16T05:55:40;12.80;;;11.20;;
67986;SDS011;54767;53.800;15.956;2023-04-16T05:58:09;10.60;;;6.40;;
67986;SDS011;54767;53.800;15.956;2023-04-16T06:00:37;7.60;;;5.40;;
67986;SDS011;54767;53.800;15.956;2023-04-16T06:03:06;8.30;;;5.40;;
67986;SDS011;54767;53.800;15.956;2023-04-16T06:05:34;8.60;;;5.20;;
67986;SDS011;54767;53.800;15.956;2023-04-16T06:08:03;7.00;;;5.20;;
67986;SDS011;54767;53.800;15.956;2023-04-16T06:10:31;6.50;;;5.00;;
67986;SDS011;54767;53.800;15.956;2023-04-16T06:12:59;8.00;;;5.40;;
67986;SDS011;54767;53.800;15.956;2023-04-16T06:15:27;7.40;;;4.90;;
67986;SDS011;54767;53.800;15.956;2023-04-16T06:17:56;8.20;;;5.20;;
67986;SDS011;54767;53.800;15.956;2023-04-16T06:20:27;7.90;;;5.30;;
67986;SDS011;54767;53.800;15.956;2023-04-16T06:22:56;8.10;;;5.80;;
67986;SDS011;54767;53.800;15.956;2023-04-16T06:25:24;41.80;;;18.50;;
67986;SDS011;54767;53.800;15.956;2023-04-16T06:27:52;31.10;;;15.10;;
67986;SDS011;54767;53.800;15.956;2023-04-16T06:30:21;24.10;;;12.60;;
67986;SDS011;54767;53.800;15.956;2023-04-16T06:32:49;24.20;;;12.20;;
67986;SDS011;54767;53.800;15.956;2023-04-16T06:35:17;16.60;;;9.70;;
67986;SDS011;54767;53.800;15.956;2023-04-16T06:37:47;26.80;;;14.10;;
67986;SDS011;54767;53.800;15.956;2023-04-16T06:40:15;30.70;;;17.80;;
67986;SDS011;54767;53.800;15.956;2023-04-16T06:42:43;24.00;;;15.20;;
67986;SDS011;54767;53.800;15.956;2023-04-16T06:45:12;64.70;;;30.20;;
67986;SDS011;54767;53.800;15.956;2023-04-16T06:47:40;37.00;;;19.20;;
67986;SDS011;54767;53.800;15.956;2023-04-16T06:50:09;41.80;;;20.50;;
67986;SDS011;54767;53.800;15.956;2023-04-16T06:52:38;36.90;;;21.90;;
67986;SDS011;54767;53.800;15.956;2023-04-16T06:55:06;26.40;;;15.20;;
67986;SDS011;54767;53.800;15.956;2023-04-16T06:57:36;18.10;;;10.90;;
67986;SDS011;54767;53.800;15.956;2023-04-16T07:00:05;24.30;;;13.90;;
67986;SDS011;54767;53.800;15.956;2023-04-16T07:02:34;14.50;;;8.50;;
67986;SDS011;54767;53.800;15.956;2023-04-16T07:05:02;14.90;;;9.30;;
67986;SDS011;54767;53.800;15.956;2023-04-16T07:07:31;15.00;;;9.50;;
67986;SDS011;54767;53.800;15.956;2023-04-16T07:09:59;20.20;;;12.00;;
67986;SDS011;54767;53.800;15.956;2023-04-16T07:12:28;17.10;;;9.60;;
67986;SDS011;54767;53.800;15.956;2023-04-16T07:14:56;13.00;;;7.80;;
67986;SDS011;54767;53.800;15.956;2023-04-16T07:17:24;23.20;;;13.60;;
67986;SDS011;54767;53.800;15.956;2023-04-16T07:19:53;21.20;;;12.20;;
67986;SDS011;54767;53.800;15.956;2023-04-16T07:22:21;16.50;;;9.60;;
67986;SDS011;54767;53.800;15.956;2023-04-16T07:24:49;17.50;;;10.50;;
67986;SDS011;54767;53.800;15.956;2023-04-16T07:27:17;17.50;;;10.90;;
67986;SDS011;54767;53.800;15.956;2023-04-16T07:29:46;16.10;;;9.10;;
67986;SDS011;54767;53.800;15.956;2023-04-16T07:32:17;12.30;;;8.20;;
67986;SDS011;54767;53.800;15.956;2023-04-16T07:34:45;13.60;;;9.20;;
67986;SDS011;54767;53.800;15.956;2023-04-16T07:37:14;10.80;;;7.20;;
67986;SDS011;54767;53.800;15.956;2023-04-16T07:39:42;9.80;;;7.10;;
67986;SDS011;54767;53.800;15.956;2023-04-16T07:42:10;10.10;;;7.10;;
67986;SDS011;54767;53.800;15.956;2023-04-16T07:44:38;9.90;;;7.10;;
67986;SDS011;54767;53.800;15.956;2023-04-16T07:47:07;7.60;;;5.90;;
67986;SDS011;54767;53.800;15.956;2023-04-16T07:49:35;9.50;;;6.00;;
67986;SDS011;54767;53.800;15.956;2023-04-16T07:52:04;8.30;;;6.20;;
67986;SDS011;54767;53.800;15.956;2023-04-16T07:54:32;8.20;;;6.00;;
67986;SDS011;54767;53.800;15.956;2023-04-16T07:57:01;7.60;;;6.10;;
67986;SDS011;54767;53.800;15.956;2023-04-16T07:59:29;46.70;;;32.30;;
67986;SDS011;54767;53.800;15.956;2023-04-16T08:01:58;18.30;;;13.30;;
67986;SDS011;54767;53.800;15.956;2023-04-16T08:04:26;24.50;;;16.00;;
67986;SDS011;54767;53.800;15.956;2023-04-16T08:06:55;21.90;;;18.10;;
67986;SDS011;54767;53.800;15.956;2023-04-16T08:09:24;15.20;;;10.80;;
67986;SDS011;54767;53.800;15.956;2023-04-16T08:11:55;12.40;;;8.90;;
67986;SDS011;54767;53.800;15.956;2023-04-16T08:14:23;9.90;;;7.40;;
67986;SDS011;54767;53.800;15.956;2023-04-16T08:16:51;17.70;;;14.40;;
67986;SDS011;54767;53.800;15.956;2023-04-16T08:19:20;9.90;;;7.00;;
67986;SDS011;54767;53.800;15.956;2023-04-16T08:21:48;10.00;;;8.20;;
67986;SDS011;54767;53.800;15.956;2023-04-16T08:24:16;9.40;;;7.00;;
67986;SDS011;54767;53.800;15.956;2023-04-16T08:26:45;10.60;;;8.00;;
67986;SDS011;54767;53.800;15.956;2023-04-16T08:29:13;9.90;;;7.50;;
67986;SDS011;54767;53.800;15.956;2023-04-16T08:31:41;8.20;;;6.40;;
67986;SDS011;54767;53.800;15.956;2023-04-16T08:34:10;5.50;;;4.90;;
67986;SDS011;54767;53.800;15.956;2023-04-16T08:36:39;8.00;;;5.10;;
67986;SDS011;54767;53.800;15.956;2023-04-16T08:39:08;8.60;;;6.80;;
67986;SDS011;54767;53.800;15.956;2023-04-16T08:41:37;6.60;;;5.80;;
67986;SDS011;54767;53.800;15.956;2023-04-16T08:44:18;7.10;;;5.50;;
67986;SDS011;54767;53.800;15.956;2023-04-16T08:46:50;5.80;;;4.70;;
67986;SDS011;54767;53.800;15.956;2023-04-16T08:49:29;6.20;;;5.10;;
67986;SDS011;54767;53.800;15.956;2023-04-16T08:52:05;7.70;;;5.80;;
67986;SDS011;54767;53.800;15.956;2023-04-16T08:54:51;7.00;;;5.70;;
67986;SDS011;54767;53.800;15.956;2023-04-16T08:57:26;5.50;;;4.70;;
67986;SDS011;54767;53.800;15.956;2023-04-16T08:59:57;6.40;;;5.10;;
67986;SDS011;54767;53.800;15.956;2023-04-16T09:02:28;5.20;;;4.40;;
67986;SDS011;54767;53.800;15.956;2023-04-16T09:09:30;4.90;;;3.90;;
67986;SDS011;54767;53.800;15.956;2023-04-16T09:12:04;65.80;;;42.20;;
67986;SDS011;54767;53.800;15.956;2023-04-16T09:14:37;54.50;;;38.70;;
67986;SDS011;54767;53.800;15.956;2023-04-16T09:18:04;140.30;;;86.20;;
67986;SDS011;54767;53.800;15.956;2023-04-16T09:20:33;45.00;;;33.90;;
67986;SDS011;54767;53.800;15.956;2023-04-16T09:23:01;18.50;;;12.80;;
67986;SDS011;54767;53.800;15.956;2023-04-16T09:25:33;18.90;;;16.60;;
67986;SDS011;54767;53.800;15.956;2023-04-16T09:28:02;8.40;;;7.60;;
67986;SDS011;54767;53.800;15.956;2023-04-16T09:30:30;6.20;;;5.50;;
67986;SDS011;54767;53.800;15.956;2023-04-16T09:33:11;6.20;;;5.50;;
67986;SDS011;54767;53.800;15.956;2023-04-16T09:35:51;10.90;;;8.60;;
67986;SDS011;54767;53.800;15.956;2023-04-16T09:38:20;20.40;;;13.70;;
67986;SDS011;54767;53.800;15.956;2023-04-16T09:41:14;7.10;;;6.20;;
67986;SDS011;54767;53.800;15.956;2023-04-16T09:43:55;14.10;;;9.90;;
67986;SDS011;54767;53.800;15.956;2023-04-16T09:49:09;36.00;;;19.20;;
67986;SDS011;54767;53.800;15.956;2023-04-16T09:51:43;14.30;;;6.90;;
67986;SDS011;54767;53.800;15.956;2023-04-16T09:54:14;26.30;;;15.20;;
67986;SDS011;54767;53.800;15.956;2023-04-16T09:56:44;38.00;;;20.50;;
67986;SDS011;54767;53.800;15.956;2023-04-16T09:59:20;31.90;;;15.20;;
67986;SDS011;54767;53.800;15.956;2023-04-16T10:01:49;36.90;;;21.10;;
67986;SDS011;54767;53.800;15.956;2023-04-16T10:04:25;16.70;;;9.30;;
67986;SDS011;54767;53.800;15.956;2023-04-16T10:07:04;21.70;;;14.10;;
67986;SDS011;54767;53.800;15.956;2023-04-16T10:09:36;11.50;;;8.10;;
67986;SDS011;54767;53.800;15.956;2023-04-16T10:12:05;16.10;;;11.60;;
67986;SDS011;54767;53.800;15.956;2023-04-16T10:14:34;16.00;;;11.60;;
67986;SDS011;54767;53.800;15.956;2023-04-16T10:17:02;21.30;;;16.00;;
67986;SDS011;54767;53.800;15.956;2023-04-16T10:19:33;7.10;;;6.00;;
67986;SDS011;54767;53.800;15.956;2023-04-16T10:22:02;9.00;;;6.90;;
67986;SDS011;54767;53.800;15.956;2023-04-16T10:24:47;5.10;;;4.50;;
67986;SDS011;54767;53.800;15.956;2023-04-16T10:27:17;4.90;;;4.40;;
67986;SDS011;54767;53.800;15.956;2023-04-16T10:29:47;6.10;;;4.90;;
67986;SDS011;54767;53.800;15.956;2023-04-16T10:32:20;5.00;;;4.30;;
67986;SDS011;54767;53.800;15.956;2023-04-16T10:34:49;12.70;;;8.50;;
67986;SDS011;54767;53.800;15.956;2023-04-16T10:37:20;6.80;;;5.40;;
67986;SDS011;54767;53.800;15.956;2023-04-16T10:41:03;14.10;;;7.80;;
67986;SDS011;54767;53.800;15.956;2023-04-16T10:43:38;43.40;;;23.20;;
67986;SDS011;54767;53.800;15.956;2023-04-16T10:48:45;9.00;;;6.60;;
67986;SDS011;54767;53.800;15.956;2023-04-16T10:53:56;7.90;;;6.20;;
67986;SDS011;54767;53.800;15.956;2023-04-16T10:56:33;4.10;;;3.70;;
67986;SDS011;54767;53.800;15.956;2023-04-16T10:59:06;14.30;;;7.20;;
67986;SDS011;54767;53.800;15.956;2023-04-16T11:01:41;27.40;;;12.40;;
67986;SDS011;54767;53.800;15.956;2023-04-16T11:07:01;13.70;;;8.20;;
67986;SDS011;54767;53.800;15.956;2023-04-16T11:12:32;18.30;;;10.60;;
67986;SDS011;54767;53.800;15.956;2023-04-16T11:17:36;7.40;;;5.30;;
67986;SDS011;54767;53.800;15.956;2023-04-16T11:22:47;19.60;;;11.90;;
67986;SDS011;54767;53.800;15.956;2023-04-16T11:25:23;29.10;;;16.20;;
67986;SDS011;54767;53.800;15.956;2023-04-16T11:27:53;15.70;;;9.90;;
67986;SDS011;54767;53.800;15.956;2023-04-16T11:30:28;23.20;;;15.50;;
67986;SDS011;54767;53.800;15.956;2023-04-16T11:33:00;29.70;;;17.50;;
67986;SDS011;54767;53.800;15.956;2023-04-16T11:35:30;19.70;;;11.50;;
67986;SDS011;54767;53.800;15.956;2023-04-16T11:37:59;21.90;;;12.30;;
67986;SDS011;54767;53.800;15.956;2023-04-16T11:40:30;22.90;;;13.70;;
67986;SDS011;54767;53.800;15.956;2023-04-16T11:43:00;31.60;;;19.50;;
67986;SDS011;54767;53.800;15.956;2023-04-16T11:48:54;20.70;;;11.40;;
67986;SDS011;54767;53.800;15.956;2023-04-16T11:51:23;27.00;;;15.20;;
67986;SDS011;54767;53.800;15.956;2023-04-16T11:53:52;21.90;;;13.30;;
67986;SDS011;54767;53.800;15.956;2023-04-16T11:56:27;16.80;;;10.80;;
67986;SDS011;54767;53.800;15.956;2023-04-16T11:59:16;13.90;;;8.70;;
67986;SDS011;54767;53.800;15.956;2023-04-16T12:01:47;9.90;;;5.90;;
67986;SDS011;54767;53.800;15.956;2023-04-16T12:04:19;7.90;;;4.90;;
67986;SDS011;54767;53.800;15.956;2023-04-16T12:07:05;6.30;;;4.40;;
67986;SDS011;54767;53.800;15.956;2023-04-16T12:09:37;4.00;;;3.70;;
67986;SDS011;54767;53.800;15.956;2023-04-16T12:12:27;4.40;;;3.80;;
67986;SDS011;54767;53.800;15.956;2023-04-16T12:14:59;11.30;;;7.10;;
67986;SDS011;54767;53.800;15.956;2023-04-16T12:17:32;12.30;;;5.20;;
67986;SDS011;54767;53.800;15.956;2023-04-16T12:20:07;12.90;;;6.90;;
67986;SDS011;54767;53.800;15.956;2023-04-16T12:22:38;16.40;;;8.70;;
67986;SDS011;54767;53.800;15.956;2023-04-16T12:25:11;12.80;;;7.10;;
67986;SDS011;54767;53.800;15.956;2023-04-16T12:27:46;6.20;;;4.20;;
67986;SDS011;54767;53.800;15.956;2023-04-16T12:30:23;4.90;;;3.50;;
67986;SDS011;54767;53.800;15.956;2023-04-16T12:33:12;5.90;;;4.60;;
67986;SDS011;54767;53.800;15.956;2023-04-16T12:35:44;6.00;;;4.00;;
67986;SDS011;54767;53.800;15.956;2023-04-16T12:38:13;11.40;;;6.20;;
67986;SDS011;54767;53.800;15.956;2023-04-16T12:45:41;9.40;;;5.00;;
67986;SDS011;54767;53.800;15.956;2023-04-16T12:48:10;11.80;;;6.70;;
67986;SDS011;54767;53.800;15.956;2023-04-16T12:50:39;12.80;;;7.40;;
67986;SDS011;54767;53.800;15.956;2023-04-16T12:53:11;5.30;;;3.40;;
67986;SDS011;54767;53.800;15.956;2023-04-16T12:55:40;9.90;;;7.10;;
67986;SDS011;54767;53.800;15.956;2023-04-16T12:58:08;10.60;;;7.30;;
67986;SDS011;54767;53.800;15.956;2023-04-16T13:00:39;7.80;;;6.10;;
67986;SDS011;54767;53.800;15.956;2023-04-16T13:03:07;5.50;;;4.10;;
67986;SDS011;54767;53.800;15.956;2023-04-16T13:05:36;4.40;;;3.40;;
67986;SDS011;54767;53.800;15.956;2023-04-16T13:08:04;8.50;;;5.10;;
67986;SDS011;54767;53.800;15.956;2023-04-16T13:10:33;28.30;;;15.00;;
67986;SDS011;54767;53.800;15.956;2023-04-16T13:13:02;25.60;;;14.30;;
67986;SDS011;54767;53.800;15.956;2023-04-16T13:15:31;14.60;;;7.90;;
67986;SDS011;54767;53.800;15.956;2023-04-16T13:17:59;18.50;;;11.60;;
67986;SDS011;54767;53.800;15.956;2023-04-16T13:20:28;23.00;;;13.50;;
67986;SDS011;54767;53.800;15.956;2023-04-16T13:23:00;21.60;;;13.60;;
67986;SDS011;54767;53.800;15.956;2023-04-16T13:25:29;13.10;;;8.70;;
67986;SDS011;54767;53.800;15.956;2023-04-16T13:27:58;8.40;;;5.90;;
67986;SDS011;54767;53.800;15.956;2023-04-16T13:30:26;7.60;;;5.50;;
67986;SDS011;54767;53.800;15.956;2023-04-16T13:32:56;10.50;;;7.90;;
67986;SDS011;54767;53.800;15.956;2023-04-16T13:35:25;6.90;;;5.40;;
67986;SDS011;54767;53.800;15.956;2023-04-16T13:37:54;4.40;;;3.80;;
67986;SDS011;54767;53.800;15.956;2023-04-16T13:40:22;4.00;;;3.60;;
67986;SDS011;54767;53.800;15.956;2023-04-16T13:42:51;9.80;;;7.20;;
67986;SDS011;54767;53.800;15.956;2023-04-16T13:45:19;7.30;;;5.90;;
67986;SDS011;54767;53.800;15.956;2023-04-16T13:47:47;4.70;;;3.60;;
67986;SDS011;54767;53.800;15.956;2023-04-16T13:50:16;4.20;;;3.50;;
67986;SDS011;54767;53.800;15.956;2023-04-16T13:52:44;3.90;;;3.40;;
67986;SDS011;54767;53.800;15.956;2023-04-16T13:55:12;3.90;;;3.60;;
67986;SDS011;54767;53.800;15.956;2023-04-16T13:57:41;4.50;;;3.50;;
67986;SDS011;54767;53.800;15.956;2023-04-16T14:00:09;4.60;;;4.20;;
67986;SDS011;54767;53.800;15.956;2023-04-16T14:02:42;6.90;;;4.40;;
67986;SDS011;54767;53.800;15.956;2023-04-16T14:05:13;4.60;;;3.90;;
67986;SDS011;54767;53.800;15.956;2023-04-16T14:07:42;3.40;;;3.10;;
67986;SDS011;54767;53.800;15.956;2023-04-16T14:10:10;3.00;;;2.80;;
67986;SDS011;54767;53.800;15.956;2023-04-16T14:12:39;3.00;;;2.80;;
67986;SDS011;54767;53.800;15.956;2023-04-16T14:15:08;4.10;;;3.50;;
67986;SDS011;54767;53.800;15.956;2023-04-16T14:17:37;3.20;;;2.90;;
67986;SDS011;54767;53.800;15.956;2023-04-16T14:20:05;4.40;;;3.50;;
67986;SDS011;54767;53.800;15.956;2023-04-16T14:22:34;3.50;;;3.10;;
67986;SDS011;54767;53.800;15.956;2023-04-16T14:25:02;5.00;;;3.80;;
67986;SDS011;54767;53.800;15.956;2023-04-16T14:27:31;4.40;;;3.50;;
67986;SDS011;54767;53.800;15.956;2023-04-16T14:30:01;3.50;;;3.20;;
67986;SDS011;54767;53.800;15.956;2023-04-16T14:32:29;5.00;;;3.50;;
67986;SDS011;54767;53.800;15.956;2023-04-16T14:34:57;14.00;;;8.40;;
67986;SDS011;54767;53.800;15.956;2023-04-16T14:37:25;10.00;;;6.00;;
67986;SDS011;54767;53.800;15.956;2023-04-16T14:39:54;7.80;;;4.60;;
67986;SDS011;54767;53.800;15.956;2023-04-16T14:42:23;12.60;;;7.20;;
67986;SDS011;54767;53.800;15.956;2023-04-16T14:44:51;13.00;;;7.10;;
67986;SDS011;54767;53.800;15.956;2023-04-16T14:47:20;11.30;;;6.30;;
67986;SDS011;54767;53.800;15.956;2023-04-16T14:49:48;17.30;;;9.80;;
67986;SDS011;54767;53.800;15.956;2023-04-16T14:52:17;15.40;;;9.10;;
67986;SDS011;54767;53.800;15.956;2023-04-16T14:54:45;10.90;;;6.60;;
67986;SDS011;54767;53.800;15.956;2023-04-16T14:57:15;4.80;;;3.80;;
67986;SDS011;54767;53.800;15.956;2023-04-16T14:59:44;5.40;;;4.50;;
67986;SDS011;54767;53.800;15.956;2023-04-16T15:02:13;4.50;;;4.00;;
67986;SDS011;54767;53.800;15.956;2023-04-16T15:04:42;6.10;;;3.80;;
67986;SDS011;54767;53.800;15.956;2023-04-16T15:07:10;3.70;;;3.40;;
67986;SDS011;54767;53.800;15.956;2023-04-16T15:09:38;6.20;;;5.10;;
67986;SDS011;54767;53.800;15.956;2023-04-16T15:12:07;4.30;;;3.90;;
67986;SDS011;54767;53.800;15.956;2023-04-16T15:14:36;3.10;;;2.90;;